sensor_id;sensor_type;location;lat;lon;timestamp;P1;durP1;ratioP1;P2;durP2;ratioP2
14734;SDS011;7458;49.002;8.472;2024-03-02T00:00:36;12.48;;;7.28;;
14734;SDS011;7458;49.002;8.472;2024-03-02T00:03:03;9.55;;;7.85;;
14734;SDS011;7458;49.002;8.472;2024-03-02T00:05:31;13.23;;;8.90;;
14734;SDS011;7458;49.002;8.472;2024-03-02T00:07:57;12.70;;;7.95;;
14734;SDS011;7458;49.002;8.472;2024-03-02T00:10:25;10.50;;;7.22;;
14734;SDS011;7458;49.002;8.472;2024-03-02T00:12:56;13.48;;;8.07;;
14734;SDS011;7458;49.002;8.472;2024-03-02T00:15:30;9.88;;;8.68;;
14734;SDS011;7458;49.002;8.472;2024-03-02T00:18:16;10.45;;;6.78;;
14734;SDS011;7458;49.002;8.472;2024-03-02T00:20:47;9.10;;;6.68;;
14734;SDS011;7458;49.002;8.472;2024-03-02T00:23:17;10.77;;;8.07;;
14734;SDS011;7458;49.002;8.472;2024-03-02T00:25:46;8.57;;;7.13;;
14734;SDS011;7458;49.002;8.472;2024-03-02T00:28:25;17.17;;;7.50;;
14734;SDS011;7458;49.002;8.472;2024-03-02T00:33:44;9.93;;;8.18;;
14734;SDS011;7458;49.002;8.472;2024-03-02T00:36:16;14.03;;;8.83;;
14734;SDS011;7458;49.002;8.472;2024-03-02T00:38:51;10.20;;;8.82;;
14734;SDS011;7458;49.002;8.472;2024-03-02T00:41:23;10.05;;;7.45;;
14734;SDS011;7458;49.002;8.472;2024-03-02T00:44:06;10.20;;;8.32;;
14734;SDS011;7458;49.002;8.472;2024-03-02T00:46:38;14.80;;;10.52;;
14734;SDS011;7458;49.002;8.472;2024-03-02T00:49:06;9.80;;;7.70;;
14734;SDS011;7458;49.002;8.472;2024-03-02T00:51:48;8.48;;;7.45;;
14734;SDS011;7458;49.002;8.472;2024-03-02T00:54:23;10.68;;;8.23;;
14734;SDS011;7458;49.002;8.472;2024-03-02T00:56:52;9.93;;;7.22;;
14734;SDS011;7458;49.002;8.472;2024-03-02T00:59:20;10.82;;;7.50;;
14734;SDS011;7458;49.002;8.472;2024-03-02T01:01:48;12.80;;;6.57;;
14734;SDS011;7458;49.002;8.472;2024-03-02T01:04:14;8.15;;;6.20;;
14734;SDS011;7458;49.002;8.472;2024-03-02T01:06:42;9.48;;;5.28;;
14734;SDS011;7458;49.002;8.472;2024-03-02T01:09:08;10.02;;;7.18;;
14734;SDS011;7458;49.002;8.472;2024-03-02T01:11:35;8.63;;;5.15;;
14734;SDS011;7458;49.002;8.472;2024-03-02T01:14:01;6.85;;;4.50;;
14734;SDS011;7458;49.002;8.472;2024-03-02T01:16:27;7.20;;;4.53;;
14734;SDS011;7458;49.002;8.472;2024-03-02T01:18:53;6.80;;;3.45;;
14734;SDS011;7458;49.002;8.472;2024-03-02T01:21:19;6.65;;;4.32;;
14734;SDS011;7458;49.002;8.472;2024-03-02T01:23:45;6.88;;;3.72;;
14734;SDS011;7458;49.002;8.472;2024-03-02T01:26:11;4.78;;;3.97;;
14734;SDS011;7458;49.002;8.472;2024-03-02T01:28:38;5.03;;;3.60;;
14734;SDS011;7458;49.002;8.472;2024-03-02T01:31:04;5.80;;;3.47;;
14734;SDS011;7458;49.002;8.472;2024-03-02T01:33:30;4.80;;;2.63;;
14734;SDS011;7458;49.002;8.472;2024-03-02T01:35:56;6.40;;;3.55;;
14734;SDS011;7458;49.002;8.472;2024-03-02T01:38:22;4.38;;;3.33;;
14734;SDS011;7458;49.002;8.472;2024-03-02T01:40:48;4.28;;;3.47;;
14734;SDS011;7458;49.002;8.472;2024-03-02T01:43:15;4.95;;;3.08;;
14734;SDS011;7458;49.002;8.472;2024-03-02T01:45:41;4.03;;;3.20;;
14734;SDS011;7458;49.002;8.472;2024-03-02T01:48:07;5.53;;;4.13;;
14734;SDS011;7458;49.002;8.472;2024-03-02T01:50:34;5.10;;;2.80;;
14734;SDS011;7458;49.002;8.472;2024-03-02T01:53:01;4.85;;;3.33;;
14734;SDS011;7458;49.002;8.472;2024-03-02T01:55:28;7.20;;;3.75;;
14734;SDS011;7458;49.002;8.472;2024-03-02T01:57:55;4.80;;;3.13;;
14734;SDS011;7458;49.002;8.472;2024-03-02T02:00:21;5.40;;;3.00;;
14734;SDS011;7458;49.002;8.472;2024-03-02T02:02:50;6.68;;;5.15;;
14734;SDS011;7458;49.002;8.472;2024-03-02T02:05:17;6.25;;;5.65;;
14734;SDS011;7458;49.002;8.472;2024-03-02T02:07:43;7.50;;;6.65;;
14734;SDS011;7458;49.002;8.472;2024-03-02T02:10:10;5.63;;;4.07;;
14734;SDS011;7458;49.002;8.472;2024-03-02T02:12:36;7.30;;;5.57;;
14734;SDS011;7458;49.002;8.472;2024-03-02T02:15:03;5.28;;;3.55;;
14734;SDS011;7458;49.002;8.472;2024-03-02T02:17:46;4.50;;;3.30;;
14734;SDS011;7458;49.002;8.472;2024-03-02T02:20:12;5.25;;;3.15;;
14734;SDS011;7458;49.002;8.472;2024-03-02T02:22:38;4.95;;;3.50;;
14734;SDS011;7458;49.002;8.472;2024-03-02T02:25:05;8.93;;;5.72;;
14734;SDS011;7458;49.002;8.472;2024-03-02T02:27:31;10.20;;;6.22;;
14734;SDS011;7458;49.002;8.472;2024-03-02T02:29:57;10.20;;;6.35;;
14734;SDS011;7458;49.002;8.472;2024-03-02T02:32:24;9.60;;;7.03;;
14734;SDS011;7458;49.002;8.472;2024-03-02T02:34:53;10.82;;;7.53;;
14734;SDS011;7458;49.002;8.472;2024-03-02T02:37:22;8.18;;;6.38;;
14734;SDS011;7458;49.002;8.472;2024-03-02T02:39:48;8.10;;;6.40;;
14734;SDS011;7458;49.002;8.472;2024-03-02T02:42:14;16.65;;;7.32;;
14734;SDS011;7458;49.002;8.472;2024-03-02T02:44:40;7.80;;;6.60;;
14734;SDS011;7458;49.002;8.472;2024-03-02T02:47:06;10.07;;;7.18;;
14734;SDS011;7458;49.002;8.472;2024-03-02T02:49:33;8.48;;;6.20;;
14734;SDS011;7458;49.002;8.472;2024-03-02T02:51:59;9.80;;;5.93;;
14734;SDS011;7458;49.002;8.472;2024-03-02T02:54:25;7.90;;;6.03;;
14734;SDS011;7458;49.002;8.472;2024-03-02T02:56:51;10.27;;;8.40;;
14734;SDS011;7458;49.002;8.472;2024-03-02T02:59:17;9.43;;;7.90;;
14734;SDS011;7458;49.002;8.472;2024-03-02T03:01:43;10.55;;;7.65;;
14734;SDS011;7458;49.002;8.472;2024-03-02T03:04:09;9.32;;;6.68;;
14734;SDS011;7458;49.002;8.472;2024-03-02T03:06:35;9.07;;;6.40;;
14734;SDS011;7458;49.002;8.472;2024-03-02T03:09:02;9.15;;;7.05;;
14734;SDS011;7458;49.002;8.472;2024-03-02T03:11:28;10.02;;;6.25;;
14734;SDS011;7458;49.002;8.472;2024-03-02T03:13:54;8.85;;;7.45;;
14734;SDS011;7458;49.002;8.472;2024-03-02T03:16:21;9.88;;;5.93;;
14734;SDS011;7458;49.002;8.472;2024-03-02T03:18:47;8.95;;;6.47;;
14734;SDS011;7458;49.002;8.472;2024-03-02T03:21:16;6.20;;;5.60;;
14734;SDS011;7458;49.002;8.472;2024-03-02T03:23:42;8.18;;;7.25;;
14734;SDS011;7458;49.002;8.472;2024-03-02T03:26:08;10.07;;;7.10;;
14734;SDS011;7458;49.002;8.472;2024-03-02T03:28:34;9.40;;;6.53;;
14734;SDS011;7458;49.002;8.472;2024-03-02T03:31:00;8.60;;;6.63;;
14734;SDS011;7458;49.002;8.472;2024-03-02T03:33:27;13.27;;;7.07;;
14734;SDS011;7458;49.002;8.472;2024-03-02T03:35:53;10.80;;;7.55;;
14734;SDS011;7458;49.002;8.472;2024-03-02T03:38:19;9.85;;;7.20;;
14734;SDS011;7458;49.002;8.472;2024-03-02T03:40:45;8.23;;;6.35;;
14734;SDS011;7458;49.002;8.472;2024-03-02T03:43:12;8.90;;;7.30;;
14734;SDS011;7458;49.002;8.472;2024-03-02T03:45:38;10.73;;;6.43;;
14734;SDS011;7458;49.002;8.472;2024-03-02T03:48:04;10.07;;;7.55;;
14734;SDS011;7458;49.002;8.472;2024-03-02T03:50:31;7.80;;;5.20;;
14734;SDS011;7458;49.002;8.472;2024-03-02T03:52:57;7.15;;;4.25;;
14734;SDS011;7458;49.002;8.472;2024-03-02T03:55:23;10.30;;;7.97;;
14734;SDS011;7458;49.002;8.472;2024-03-02T03:57:50;7.32;;;6.38;;
14734;SDS011;7458;49.002;8.472;2024-03-02T04:00:16;6.70;;;5.72;;
14734;SDS011;7458;49.002;8.472;2024-03-02T04:02:42;7.95;;;6.53;;
14734;SDS011;7458;49.002;8.472;2024-03-02T04:05:08;7.18;;;6.18;;
14734;SDS011;7458;49.002;8.472;2024-03-02T04:07:36;9.27;;;6.97;;
14734;SDS011;7458;49.002;8.472;2024-03-02T04:10:06;6.88;;;5.47;;
14734;SDS011;7458;49.002;8.472;2024-03-02T04:12:34;8.20;;;6.03;;
14734;SDS011;7458;49.002;8.472;2024-03-02T04:15:04;8.27;;;4.70;;
14734;SDS011;7458;49.002;8.472;2024-03-02T04:17:32;7.80;;;5.10;;
14734;SDS011;7458;49.002;8.472;2024-03-02T04:19:58;7.13;;;5.35;;
14734;SDS011;7458;49.002;8.472;2024-03-02T04:22:25;7.63;;;4.38;;
14734;SDS011;7458;49.002;8.472;2024-03-02T04:24:52;9.32;;;5.72;;
14734;SDS011;7458;49.002;8.472;2024-03-02T04:27:19;8.50;;;5.45;;
14734;SDS011;7458;49.002;8.472;2024-03-02T04:29:45;11.55;;;10.38;;
14734;SDS011;7458;49.002;8.472;2024-03-02T04:32:11;8.85;;;8.00;;
14734;SDS011;7458;49.002;8.472;2024-03-02T04:34:38;12.55;;;11.23;;
14734;SDS011;7458;49.002;8.472;2024-03-02T04:37:04;12.02;;;10.75;;
14734;SDS011;7458;49.002;8.472;2024-03-02T04:39:30;11.43;;;9.60;;
14734;SDS011;7458;49.002;8.472;2024-03-02T04:41:56;11.68;;;10.52;;
14734;SDS011;7458;49.002;8.472;2024-03-02T04:44:23;9.05;;;7.95;;
14734;SDS011;7458;49.002;8.472;2024-03-02T04:46:49;10.10;;;8.25;;
14734;SDS011;7458;49.002;8.472;2024-03-02T04:49:15;9.50;;;8.57;;
14734;SDS011;7458;49.002;8.472;2024-03-02T04:51:41;8.05;;;7.35;;
14734;SDS011;7458;49.002;8.472;2024-03-02T04:54:07;11.52;;;8.43;;
14734;SDS011;7458;49.002;8.472;2024-03-02T04:56:34;9.85;;;8.00;;
14734;SDS011;7458;49.002;8.472;2024-03-02T04:59:26;9.73;;;8.05;;
14734;SDS011;7458;49.002;8.472;2024-03-02T05:01:52;8.90;;;7.05;;
14734;SDS011;7458;49.002;8.472;2024-03-02T05:04:18;8.65;;;7.80;;
14734;SDS011;7458;49.002;8.472;2024-03-02T05:06:44;8.32;;;6.68;;
14734;SDS011;7458;49.002;8.472;2024-03-02T05:09:17;8.30;;;6.75;;
14734;SDS011;7458;49.002;8.472;2024-03-02T05:11:43;6.40;;;5.57;;
14734;SDS011;7458;49.002;8.472;2024-03-02T05:14:09;7.03;;;5.78;;
14734;SDS011;7458;49.002;8.472;2024-03-02T05:16:35;7.10;;;3.80;;
14734;SDS011;7458;49.002;8.472;2024-03-02T05:19:03;5.82;;;4.38;;
14734;SDS011;7458;49.002;8.472;2024-03-02T05:21:31;4.03;;;2.97;;
14734;SDS011;7458;49.002;8.472;2024-03-02T05:23:58;5.07;;;2.78;;
14734;SDS011;7458;49.002;8.472;2024-03-02T05:26:24;7.45;;;4.03;;
14734;SDS011;7458;49.002;8.472;2024-03-02T05:28:51;4.80;;;3.38;;
14734;SDS011;7458;49.002;8.472;2024-03-02T05:31:17;4.32;;;3.58;;
14734;SDS011;7458;49.002;8.472;2024-03-02T05:33:43;5.63;;;3.88;;
14734;SDS011;7458;49.002;8.472;2024-03-02T05:36:09;4.25;;;3.05;;
14734;SDS011;7458;49.002;8.472;2024-03-02T05:38:36;5.25;;;3.70;;
14734;SDS011;7458;49.002;8.472;2024-03-02T05:41:02;4.93;;;3.38;;
14734;SDS011;7458;49.002;8.472;2024-03-02T05:43:28;4.80;;;3.40;;
14734;SDS011;7458;49.002;8.472;2024-03-02T05:45:55;7.50;;;4.20;;
14734;SDS011;7458;49.002;8.472;2024-03-02T05:48:21;7.97;;;5.63;;
14734;SDS011;7458;49.002;8.472;2024-03-02T05:50:47;7.93;;;4.15;;
14734;SDS011;7458;49.002;8.472;2024-03-02T05:53:13;6.28;;;4.03;;
14734;SDS011;7458;49.002;8.472;2024-03-02T05:55:40;6.50;;;5.18;;
14734;SDS011;7458;49.002;8.472;2024-03-02T05:58:06;6.90;;;4.13;;
14734;SDS011;7458;49.002;8.472;2024-03-02T06:01:02;6.35;;;5.03;;
14734;SDS011;7458;49.002;8.472;2024-03-02T06:03:29;6.15;;;5.43;;
14734;SDS011;7458;49.002;8.472;2024-03-02T06:05:55;7.28;;;4.85;;
14734;SDS011;7458;49.002;8.472;2024-03-02T06:08:22;6.72;;;5.30;;
14734;SDS011;7458;49.002;8.472;2024-03-02T06:10:48;5.93;;;4.97;;
14734;SDS011;7458;49.002;8.472;2024-03-02T06:13:14;8.18;;;5.15;;
14734;SDS011;7458;49.002;8.472;2024-03-02T06:15:40;6.40;;;4.70;;
14734;SDS011;7458;49.002;8.472;2024-03-02T06:18:06;8.35;;;5.45;;
14734;SDS011;7458;49.002;8.472;2024-03-02T06:20:33;4.45;;;3.45;;
14734;SDS011;7458;49.002;8.472;2024-03-02T06:22:59;4.18;;;3.53;;
14734;SDS011;7458;49.002;8.472;2024-03-02T06:25:25;7.90;;;5.40;;
14734;SDS011;7458;49.002;8.472;2024-03-02T06:27:51;5.43;;;4.13;;
14734;SDS011;7458;49.002;8.472;2024-03-02T06:30:17;6.10;;;4.43;;
14734;SDS011;7458;49.002;8.472;2024-03-02T06:32:43;6.72;;;3.95;;
14734;SDS011;7458;49.002;8.472;2024-03-02T06:35:09;7.00;;;4.60;;
14734;SDS011;7458;49.002;8.472;2024-03-02T06:37:37;6.88;;;4.07;;
14734;SDS011;7458;49.002;8.472;2024-03-02T06:40:05;6.95;;;5.28;;
14734;SDS011;7458;49.002;8.472;2024-03-02T06:42:33;8.30;;;4.72;;
14734;SDS011;7458;49.002;8.472;2024-03-02T06:45:00;7.75;;;4.93;;
14734;SDS011;7458;49.002;8.472;2024-03-02T06:47:26;7.57;;;4.10;;
14734;SDS011;7458;49.002;8.472;2024-03-02T06:49:52;4.40;;;4.00;;
14734;SDS011;7458;49.002;8.472;2024-03-02T06:52:19;8.55;;;4.82;;
14734;SDS011;7458;49.002;8.472;2024-03-02T06:54:46;5.00;;;4.20;;
14734;SDS011;7458;49.002;8.472;2024-03-02T06:57:12;7.53;;;3.83;;
14734;SDS011;7458;49.002;8.472;2024-03-02T06:59:38;6.97;;;4.43;;
14734;SDS011;7458;49.002;8.472;2024-03-02T07:02:04;5.00;;;4.47;;
14734;SDS011;7458;49.002;8.472;2024-03-02T07:04:30;4.20;;;3.65;;
14734;SDS011;7458;49.002;8.472;2024-03-02T07:06:56;5.53;;;4.35;;
14734;SDS011;7458;49.002;8.472;2024-03-02T07:09:22;6.93;;;4.93;;
14734;SDS011;7458;49.002;8.472;2024-03-02T07:11:49;7.60;;;5.53;;
14734;SDS011;7458;49.002;8.472;2024-03-02T07:14:15;6.32;;;4.47;;
14734;SDS011;7458;49.002;8.472;2024-03-02T07:16:41;6.88;;;4.82;;
14734;SDS011;7458;49.002;8.472;2024-03-02T07:19:08;6.18;;;5.30;;
14734;SDS011;7458;49.002;8.472;2024-03-02T07:21:34;6.43;;;4.20;;
14734;SDS011;7458;49.002;8.472;2024-03-02T07:24:00;8.48;;;4.47;;
14734;SDS011;7458;49.002;8.472;2024-03-02T07:26:28;5.63;;;4.10;;
14734;SDS011;7458;49.002;8.472;2024-03-02T07:28:56;7.47;;;4.72;;
14734;SDS011;7458;49.002;8.472;2024-03-02T07:31:22;5.85;;;3.70;;
14734;SDS011;7458;49.002;8.472;2024-03-02T07:33:48;10.18;;;5.18;;
14734;SDS011;7458;49.002;8.472;2024-03-02T07:36:14;4.43;;;3.65;;
14734;SDS011;7458;49.002;8.472;2024-03-02T07:38:41;12.20;;;4.15;;
14734;SDS011;7458;49.002;8.472;2024-03-02T07:41:09;11.13;;;4.57;;
14734;SDS011;7458;49.002;8.472;2024-03-02T07:43:36;8.82;;;4.82;;
14734;SDS011;7458;49.002;8.472;2024-03-02T07:46:02;6.45;;;4.53;;
14734;SDS011;7458;49.002;8.472;2024-03-02T07:48:28;4.78;;;3.65;;
14734;SDS011;7458;49.002;8.472;2024-03-02T07:50:55;5.72;;;4.53;;
14734;SDS011;7458;49.002;8.472;2024-03-02T07:53:22;6.35;;;5.22;;
14734;SDS011;7458;49.002;8.472;2024-03-02T07:55:48;7.97;;;5.10;;
14734;SDS011;7458;49.002;8.472;2024-03-02T07:58:14;8.63;;;4.82;;
14734;SDS011;7458;49.002;8.472;2024-03-02T08:00:40;5.57;;;4.53;;
14734;SDS011;7458;49.002;8.472;2024-03-02T08:03:06;5.13;;;4.20;;
14734;SDS011;7458;49.002;8.472;2024-03-02T08:05:36;5.82;;;4.50;;
14734;SDS011;7458;49.002;8.472;2024-03-02T08:08:03;5.70;;;4.22;;
14734;SDS011;7458;49.002;8.472;2024-03-02T08:10:30;4.25;;;3.70;;
14734;SDS011;7458;49.002;8.472;2024-03-02T08:12:56;5.43;;;3.97;;
14734;SDS011;7458;49.002;8.472;2024-03-02T08:15:22;4.85;;;4.22;;
14734;SDS011;7458;49.002;8.472;2024-03-02T08:17:48;5.68;;;4.18;;
14734;SDS011;7458;49.002;8.472;2024-03-02T08:20:15;4.97;;;3.53;;
14734;SDS011;7458;49.002;8.472;2024-03-02T08:22:41;6.93;;;4.60;;
14734;SDS011;7458;49.002;8.472;2024-03-02T08:25:07;6.07;;;3.70;;
14734;SDS011;7458;49.002;8.472;2024-03-02T08:27:34;6.85;;;4.60;;
14734;SDS011;7458;49.002;8.472;2024-03-02T08:30:00;7.25;;;4.95;;
14734;SDS011;7458;49.002;8.472;2024-03-02T08:32:31;6.18;;;4.38;;
14734;SDS011;7458;49.002;8.472;2024-03-02T08:34:57;5.70;;;4.47;;
14734;SDS011;7458;49.002;8.472;2024-03-02T08:37:23;6.13;;;4.95;;
14734;SDS011;7458;49.002;8.472;2024-03-02T08:39:49;7.63;;;5.00;;
14734;SDS011;7458;49.002;8.472;2024-03-02T08:42:15;5.63;;;5.07;;
14734;SDS011;7458;49.002;8.472;2024-03-02T08:44:42;9.38;;;6.10;;
14734;SDS011;7458;49.002;8.472;2024-03-02T08:47:08;7.78;;;5.78;;
14734;SDS011;7458;49.002;8.472;2024-03-02T08:49:35;6.80;;;5.05;;
14734;SDS011;7458;49.002;8.472;2024-03-02T08:52:01;6.78;;;5.63;;
14734;SDS011;7458;49.002;8.472;2024-03-02T08:54:27;7.68;;;6.07;;
14734;SDS011;7458;49.002;8.472;2024-03-02T08:56:53;7.90;;;6.53;;
14734;SDS011;7458;49.002;8.472;2024-03-02T08:59:19;6.05;;;4.97;;
14734;SDS011;7458;49.002;8.472;2024-03-02T09:01:44;7.35;;;4.78;;
14734;SDS011;7458;49.002;8.472;2024-03-02T09:04:10;6.55;;;4.95;;
14734;SDS011;7458;49.002;8.472;2024-03-02T09:06:36;5.85;;;4.68;;
14734;SDS011;7458;49.002;8.472;2024-03-02T09:09:02;4.53;;;4.03;;
14734;SDS011;7458;49.002;8.472;2024-03-02T09:11:27;5.05;;;3.70;;
14734;SDS011;7458;49.002;8.472;2024-03-02T09:13:54;6.03;;;3.75;;
14734;SDS011;7458;49.002;8.472;2024-03-02T09:16:20;5.93;;;4.32;;
14734;SDS011;7458;49.002;8.472;2024-03-02T09:18:47;7.03;;;4.38;;
14734;SDS011;7458;49.002;8.472;2024-03-02T09:21:13;4.75;;;3.42;;
14734;SDS011;7458;49.002;8.472;2024-03-02T09:23:40;5.15;;;4.00;;
14734;SDS011;7458;49.002;8.472;2024-03-02T09:26:06;7.97;;;4.13;;
14734;SDS011;7458;49.002;8.472;2024-03-02T09:28:31;4.20;;;3.45;;
14734;SDS011;7458;49.002;8.472;2024-03-02T09:30:57;5.95;;;3.50;;
14734;SDS011;7458;49.002;8.472;2024-03-02T09:33:28;3.22;;;2.92;;
14734;SDS011;7458;49.002;8.472;2024-03-02T09:35:54;5.80;;;3.80;;
14734;SDS011;7458;49.002;8.472;2024-03-02T09:38:21;4.63;;;3.05;;
14734;SDS011;7458;49.002;8.472;2024-03-02T09:40:48;5.68;;;2.80;;
14734;SDS011;7458;49.002;8.472;2024-03-02T09:43:15;2.97;;;2.58;;
14734;SDS011;7458;49.002;8.472;2024-03-02T09:45:41;4.13;;;3.30;;
14734;SDS011;7458;49.002;8.472;2024-03-02T09:48:08;6.85;;;4.72;;
14734;SDS011;7458;49.002;8.472;2024-03-02T09:50:35;6.15;;;3.83;;
14734;SDS011;7458;49.002;8.472;2024-03-02T09:53:01;7.22;;;4.68;;
14734;SDS011;7458;49.002;8.472;2024-03-02T09:55:27;5.38;;;4.38;;
14734;SDS011;7458;49.002;8.472;2024-03-02T09:57:53;4.88;;;4.30;;
14734;SDS011;7458;49.002;8.472;2024-03-02T10:00:21;5.95;;;5.07;;
14734;SDS011;7458;49.002;8.472;2024-03-02T10:02:47;9.15;;;5.43;;
14734;SDS011;7458;49.002;8.472;2024-03-02T10:05:20;5.20;;;4.43;;
14734;SDS011;7458;49.002;8.472;2024-03-02T10:08:03;6.15;;;4.38;;
14734;SDS011;7458;49.002;8.472;2024-03-02T10:10:38;5.63;;;5.03;;
14734;SDS011;7458;49.002;8.472;2024-03-02T10:13:07;8.02;;;5.60;;
14734;SDS011;7458;49.002;8.472;2024-03-02T10:15:35;5.93;;;4.15;;
14734;SDS011;7458;49.002;8.472;2024-03-02T10:18:11;5.72;;;4.95;;
14734;SDS011;7458;49.002;8.472;2024-03-02T10:20:38;4.93;;;4.25;;
14734;SDS011;7458;49.002;8.472;2024-03-02T10:23:12;6.18;;;4.72;;
14734;SDS011;7458;49.002;8.472;2024-03-02T10:25:40;5.87;;;5.27;;
14734;SDS011;7458;49.002;8.472;2024-03-02T10:28:07;5.95;;;4.47;;
14734;SDS011;7458;49.002;8.472;2024-03-02T10:30:33;5.55;;;4.32;;
14734;SDS011;7458;49.002;8.472;2024-03-02T10:33:00;4.60;;;4.07;;
14734;SDS011;7458;49.002;8.472;2024-03-02T10:35:28;7.53;;;4.75;;
14734;SDS011;7458;49.002;8.472;2024-03-02T10:37:57;5.80;;;4.25;;
14734;SDS011;7458;49.002;8.472;2024-03-02T10:40:26;4.40;;;3.97;;
14734;SDS011;7458;49.002;8.472;2024-03-02T10:42:52;5.57;;;4.78;;
14734;SDS011;7458;49.002;8.472;2024-03-02T10:45:19;9.05;;;4.68;;
14734;SDS011;7458;49.002;8.472;2024-03-02T10:47:47;8.32;;;4.75;;
14734;SDS011;7458;49.002;8.472;2024-03-02T10:50:14;7.88;;;5.00;;
14734;SDS011;7458;49.002;8.472;2024-03-02T10:52:41;6.57;;;5.32;;
14734;SDS011;7458;49.002;8.472;2024-03-02T10:55:07;5.50;;;4.90;;
14734;SDS011;7458;49.002;8.472;2024-03-02T11:00:15;5.80;;;5.22;;
14734;SDS011;7458;49.002;8.472;2024-03-02T11:02:46;7.13;;;5.72;;
14734;SDS011;7458;49.002;8.472;2024-03-02T11:05:43;7.25;;;4.38;;
14734;SDS011;7458;49.002;8.472;2024-03-02T11:08:12;5.18;;;4.03;;
14734;SDS011;7458;49.002;8.472;2024-03-02T11:13:23;4.57;;;3.33;;
14734;SDS011;7458;49.002;8.472;2024-03-02T11:16:24;7.35;;;3.35;;
14734;SDS011;7458;49.002;8.472;2024-03-02T11:19:07;3.90;;;3.15;;
14734;SDS011;7458;49.002;8.472;2024-03-02T11:21:37;2.83;;;1.90;;
14734;SDS011;7458;49.002;8.472;2024-03-02T11:26:52;3.15;;;2.05;;
14734;SDS011;7458;49.002;8.472;2024-03-02T11:34:49;2.42;;;1.92;;
14734;SDS011;7458;49.002;8.472;2024-03-02T11:37:16;2.35;;;1.63;;
14734;SDS011;7458;49.002;8.472;2024-03-02T11:39:45;2.92;;;2.08;;
14734;SDS011;7458;49.002;8.472;2024-03-02T11:42:14;3.35;;;2.53;;
14734;SDS011;7458;49.002;8.472;2024-03-02T11:44:42;4.60;;;3.00;;
14734;SDS011;7458;49.002;8.472;2024-03-02T11:47:11;4.35;;;3.83;;
14734;SDS011;7458;49.002;8.472;2024-03-02T11:49:43;4.95;;;3.05;;
14734;SDS011;7458;49.002;8.472;2024-03-02T11:52:13;4.32;;;3.42;;
14734;SDS011;7458;49.002;8.472;2024-03-02T11:54:41;4.20;;;2.53;;
14734;SDS011;7458;49.002;8.472;2024-03-02T11:57:13;3.95;;;2.78;;
14734;SDS011;7458;49.002;8.472;2024-03-02T11:59:49;3.95;;;3.25;;
14734;SDS011;7458;49.002;8.472;2024-03-02T12:02:16;4.65;;;3.50;;
14734;SDS011;7458;49.002;8.472;2024-03-02T12:04:44;3.92;;;2.85;;
14734;SDS011;7458;49.002;8.472;2024-03-02T12:07:13;4.88;;;3.20;;
14734;SDS011;7458;49.002;8.472;2024-03-02T12:09:48;5.38;;;3.50;;
14734;SDS011;7458;49.002;8.472;2024-03-02T12:12:24;4.57;;;3.08;;
14734;SDS011;7458;49.002;8.472;2024-03-02T12:14:51;4.22;;;3.47;;
14734;SDS011;7458;49.002;8.472;2024-03-02T12:17:22;4.50;;;3.30;;
14734;SDS011;7458;49.002;8.472;2024-03-02T12:19:48;5.68;;;4.00;;
14734;SDS011;7458;49.002;8.472;2024-03-02T12:22:14;3.85;;;3.28;;
14734;SDS011;7458;49.002;8.472;2024-03-02T12:24:41;4.20;;;3.17;;
14734;SDS011;7458;49.002;8.472;2024-03-02T12:27:10;5.05;;;3.63;;
14734;SDS011;7458;49.002;8.472;2024-03-02T12:29:37;4.00;;;3.05;;
14734;SDS011;7458;49.002;8.472;2024-03-02T12:32:04;5.35;;;3.30;;
14734;SDS011;7458;49.002;8.472;2024-03-02T12:34:31;5.07;;;3.55;;
14734;SDS011;7458;49.002;8.472;2024-03-02T12:36:57;3.92;;;2.65;;
14734;SDS011;7458;49.002;8.472;2024-03-02T12:39:24;5.75;;;4.63;;
14734;SDS011;7458;49.002;8.472;2024-03-02T12:41:50;7.38;;;3.45;;
14734;SDS011;7458;49.002;8.472;2024-03-02T12:44:17;5.07;;;3.72;;
14734;SDS011;7458;49.002;8.472;2024-03-02T12:46:43;4.32;;;3.28;;
14734;SDS011;7458;49.002;8.472;2024-03-02T12:49:11;5.03;;;3.50;;
14734;SDS011;7458;49.002;8.472;2024-03-02T12:51:40;4.10;;;3.05;;
14734;SDS011;7458;49.002;8.472;2024-03-02T12:54:10;5.20;;;3.65;;
14734;SDS011;7458;49.002;8.472;2024-03-02T12:56:37;4.88;;;3.60;;
14734;SDS011;7458;49.002;8.472;2024-03-02T12:59:03;4.72;;;3.40;;
14734;SDS011;7458;49.002;8.472;2024-03-02T13:01:30;3.85;;;3.03;;
14734;SDS011;7458;49.002;8.472;2024-03-02T13:03:57;4.15;;;3.67;;
14734;SDS011;7458;49.002;8.472;2024-03-02T13:06:24;5.18;;;3.28;;
14734;SDS011;7458;49.002;8.472;2024-03-02T13:08:54;4.22;;;3.20;;
14734;SDS011;7458;49.002;8.472;2024-03-02T13:11:20;7.55;;;3.13;;
14734;SDS011;7458;49.002;8.472;2024-03-02T13:13:48;4.22;;;2.75;;
14734;SDS011;7458;49.002;8.472;2024-03-02T13:16:15;5.80;;;2.90;;
14734;SDS011;7458;49.002;8.472;2024-03-02T13:18:44;4.05;;;3.50;;
14734;SDS011;7458;49.002;8.472;2024-03-02T13:21:11;4.85;;;2.92;;
14734;SDS011;7458;49.002;8.472;2024-03-02T13:23:37;3.38;;;2.67;;
14734;SDS011;7458;49.002;8.472;2024-03-02T13:26:03;5.07;;;3.30;;
14734;SDS011;7458;49.002;8.472;2024-03-02T13:28:29;3.90;;;2.78;;
14734;SDS011;7458;49.002;8.472;2024-03-02T13:30:55;3.42;;;2.38;;
14734;SDS011;7458;49.002;8.472;2024-03-02T13:33:21;2.88;;;2.40;;
14734;SDS011;7458;49.002;8.472;2024-03-02T13:35:50;4.18;;;2.75;;
14734;SDS011;7458;49.002;8.472;2024-03-02T13:38:20;3.15;;;2.05;;
14734;SDS011;7458;49.002;8.472;2024-03-02T13:40:46;3.70;;;2.50;;
14734;SDS011;7458;49.002;8.472;2024-03-02T13:43:17;2.33;;;1.90;;
14734;SDS011;7458;49.002;8.472;2024-03-02T13:45:44;8.80;;;2.60;;
14734;SDS011;7458;49.002;8.472;2024-03-02T13:48:09;3.17;;;2.22;;
14734;SDS011;7458;49.002;8.472;2024-03-02T13:50:35;3.72;;;2.35;;
14734;SDS011;7458;49.002;8.472;2024-03-02T13:53:01;2.40;;;2.03;;
14734;SDS011;7458;49.002;8.472;2024-03-02T13:55:28;3.25;;;2.70;;
14734;SDS011;7458;49.002;8.472;2024-03-02T13:57:54;3.45;;;2.30;;
14734;SDS011;7458;49.002;8.472;2024-03-02T14:00:20;3.20;;;2.17;;
14734;SDS011;7458;49.002;8.472;2024-03-02T14:02:46;5.97;;;2.88;;
14734;SDS011;7458;49.002;8.472;2024-03-02T14:05:14;7.65;;;3.63;;
14734;SDS011;7458;49.002;8.472;2024-03-02T14:07:41;4.60;;;3.03;;
14734;SDS011;7458;49.002;8.472;2024-03-02T14:10:07;4.25;;;2.50;;
14734;SDS011;7458;49.002;8.472;2024-03-02T14:12:34;3.95;;;2.88;;
14734;SDS011;7458;49.002;8.472;2024-03-02T14:14:59;7.88;;;4.18;;
14734;SDS011;7458;49.002;8.472;2024-03-02T14:17:27;4.90;;;2.88;;
14734;SDS011;7458;49.002;8.472;2024-03-02T14:19:57;5.53;;;3.25;;
14734;SDS011;7458;49.002;8.472;2024-03-02T14:22:24;3.33;;;2.47;;
14734;SDS011;7458;49.002;8.472;2024-03-02T14:24:50;5.82;;;3.55;;
14734;SDS011;7458;49.002;8.472;2024-03-02T14:27:16;3.75;;;3.05;;
14734;SDS011;7458;49.002;8.472;2024-03-02T14:29:42;3.75;;;2.42;;
14734;SDS011;7458;49.002;8.472;2024-03-02T14:32:08;3.63;;;2.78;;
14734;SDS011;7458;49.002;8.472;2024-03-02T14:34:34;4.88;;;3.08;;
14734;SDS011;7458;49.002;8.472;2024-03-02T14:37:00;6.63;;;2.47;;
14734;SDS011;7458;49.002;8.472;2024-03-02T14:39:27;3.92;;;2.58;;
14734;SDS011;7458;49.002;8.472;2024-03-02T14:41:54;4.88;;;2.78;;
14734;SDS011;7458;49.002;8.472;2024-03-02T14:44:21;4.25;;;2.45;;
14734;SDS011;7458;49.002;8.472;2024-03-02T14:46:47;2.72;;;2.00;;
14734;SDS011;7458;49.002;8.472;2024-03-02T14:49:13;1.98;;;1.73;;
14734;SDS011;7458;49.002;8.472;2024-03-02T14:51:40;3.33;;;2.42;;
14734;SDS011;7458;49.002;8.472;2024-03-02T14:54:05;2.65;;;1.90;;
14734;SDS011;7458;49.002;8.472;2024-03-02T14:56:31;3.88;;;2.15;;
14734;SDS011;7458;49.002;8.472;2024-03-02T14:58:57;3.05;;;1.60;;
14734;SDS011;7458;49.002;8.472;2024-03-02T15:01:23;2.50;;;2.03;;
14734;SDS011;7458;49.002;8.472;2024-03-02T15:03:50;3.38;;;2.58;;
14734;SDS011;7458;49.002;8.472;2024-03-02T15:06:16;3.42;;;2.65;;
14734;SDS011;7458;49.002;8.472;2024-03-02T15:08:43;3.45;;;2.33;;
14734;SDS011;7458;49.002;8.472;2024-03-02T15:11:11;2.05;;;1.63;;
14734;SDS011;7458;49.002;8.472;2024-03-02T15:13:38;4.28;;;2.45;;
14734;SDS011;7458;49.002;8.472;2024-03-02T15:16:04;2.90;;;1.95;;
14734;SDS011;7458;49.002;8.472;2024-03-02T15:18:30;3.28;;;1.75;;